createdAt,value
2023-02-11T00:01:32.943Z,86.58
2023-02-11T00:04:00.607Z,86.80
2023-02-11T00:06:30.347Z,86.33
2023-02-11T00:08:57.521Z,86.42
2023-02-11T00:11:26.628Z,87.22
2023-02-11T00:13:53.435Z,86.56
2023-02-11T00:16:21.359Z,86.33
2023-02-11T00:18:50.383Z,86.79
2023-02-11T00:21:21.664Z,87.05
2023-02-11T00:23:49.259Z,87.03
2023-02-11T00:26:24.182Z,87.52
2023-02-11T00:28:52.446Z,87.44
2023-02-11T00:31:21.182Z,87.17
2023-02-11T00:33:48.196Z,87.95
2023-02-11T00:36:18.775Z,87.61
2023-02-11T00:38:46.709Z,87.65
2023-02-11T00:41:14.431Z,87.66
2023-02-11T00:43:41.958Z,87.69
2023-02-11T00:46:09.784Z,88.54
2023-02-11T00:48:36.836Z,88.52
2023-02-11T00:51:04.370Z,88.52
2023-02-11T00:53:32.398Z,88.33
2023-02-11T00:55:59.160Z,87.78
2023-02-11T00:58:25.915Z,87.65
2023-02-11T01:00:54.329Z,87.98
2023-02-11T01:03:21.213Z,88.68
2023-02-11T01:05:48.147Z,88.29
2023-02-11T01:08:15.053Z,88.93
2023-02-11T01:10:41.835Z,89.20
2023-02-11T01:13:08.573Z,89.47
2023-02-11T01:15:35.362Z,89.09
2023-02-11T01:18:02.402Z,89.45
2023-02-11T01:20:29.744Z,88.53
2023-02-11T01:22:56.471Z,88.43
2023-02-11T01:25:23.281Z,87.89
2023-02-11T01:27:50.040Z,88.28
2023-02-11T01:30:16.766Z,88.19
2023-02-11T01:32:43.587Z,88.04
2023-02-11T01:35:10.349Z,88.10
2023-02-11T01:37:37.156Z,87.91
2023-02-11T01:40:12.536Z,88.14
2023-02-11T01:42:39.629Z,87.94
2023-02-11T01:45:47.298Z,88.00
2023-02-11T01:48:29.747Z,87.89
2023-02-11T01:51:17.467Z,87.69
2023-02-11T01:54:04.659Z,88.13
2023-02-11T01:56:50.300Z,88.83
2023-02-11T01:59:29.316Z,88.29
2023-02-11T02:02:01.222Z,87.66
2023-02-11T02:04:33.565Z,87.86
2023-02-11T02:07:07.073Z,87.74
2023-02-11T02:09:42.243Z,87.72
2023-02-11T02:12:09.009Z,87.94
2023-02-11T02:14:40.593Z,87.86
2023-02-11T02:17:29.845Z,88.96
2023-02-11T02:20:49.626Z,89.36
2023-02-11T02:23:25.146Z,89.05
2023-02-11T02:28:56.300Z,88.80
2023-02-11T02:32:04.534Z,89.19
2023-02-11T02:34:48.238Z,88.78
2023-02-11T02:37:33.411Z,88.61
2023-02-11T02:40:07.206Z,88.65
2023-02-11T02:42:34.457Z,88.78
2023-02-11T02:45:01.344Z,88.55
2023-02-11T02:47:28.199Z,88.55
2023-02-11T02:49:54.944Z,88.83
2023-02-11T02:52:53.835Z,88.67
2023-02-11T02:55:45.456Z,88.68
2023-02-11T02:58:30.605Z,88.97
2023-02-11T03:01:43.200Z,88.95
2023-02-11T03:04:53.016Z,88.71
2023-02-11T03:08:02.787Z,88.99
2023-02-11T03:10:35.701Z,88.72
2023-02-11T03:13:04.727Z,87.97
2023-02-11T03:15:40.001Z,88.21
2023-02-11T03:18:13.224Z,88.63
2023-02-11T03:20:42.647Z,88.74
2023-02-11T03:23:19.848Z,88.50
2023-02-11T03:26:03.377Z,88.38
2023-02-11T03:28:40.214Z,88.70
2023-02-11T03:31:12.219Z,88.63
2023-02-11T03:33:48.613Z,88.51
2023-02-11T03:36:24.507Z,88.44
2023-02-11T03:38:57.252Z,88.74
2023-02-11T03:41:25.329Z,88.70
2023-02-11T03:43:58.495Z,89.31
2023-02-11T03:46:34.527Z,89.46
2023-02-11T03:49:09.944Z,89.44
2023-02-11T03:51:38.267Z,89.47
2023-02-11T03:54:11.333Z,90.03
2023-02-11T03:56:49.264Z,90.18
2023-02-11T03:59:15.992Z,90.36
2023-02-11T04:01:42.766Z,90.25
2023-02-11T04:04:09.653Z,89.94
2023-02-11T04:06:36.509Z,89.45
2023-02-11T04:09:03.327Z,89.24
2023-02-11T04:11:30.040Z,89.54
2023-02-11T04:13:56.782Z,89.42
2023-02-11T04:16:23.691Z,89.00
2023-02-11T04:18:50.427Z,89.64
2023-02-11T04:21:17.284Z,89.50
2023-02-11T04:23:44.079Z,89.59
2023-02-11T04:26:10.814Z,89.35
2023-02-11T04:28:37.584Z,89.46
2023-02-11T04:31:04.585Z,90.09
2023-02-11T04:33:31.380Z,90.42
2023-02-11T04:35:58.165Z,90.51
2023-02-11T04:38:24.929Z,90.97
2023-02-11T04:40:51.690Z,91.01
2023-02-11T04:43:18.463Z,91.41
2023-02-11T04:45:45.241Z,90.83
2023-02-11T04:48:11.964Z,90.09
2023-02-11T04:50:38.668Z,89.83
2023-02-11T04:53:05.395Z,89.86
2023-02-11T04:55:32.107Z,90.00
2023-02-11T04:57:58.862Z,89.82
2023-02-11T05:00:25.635Z,89.50
2023-02-11T05:02:52.401Z,88.82
2023-02-11T05:05:19.180Z,88.96
2023-02-11T05:07:45.976Z,89.69
2023-02-11T05:10:12.704Z,90.01
2023-02-11T05:12:39.474Z,89.50
2023-02-11T05:15:06.685Z,89.79
2023-02-11T05:17:33.415Z,89.52
2023-02-11T05:20:00.186Z,89.03
2023-02-11T05:22:26.925Z,89.46
2023-02-11T05:24:53.633Z,89.35
2023-02-11T05:27:20.412Z,88.96
2023-02-11T05:29:47.145Z,88.25
2023-02-11T05:32:13.925Z,88.58
2023-02-11T05:34:40.683Z,89.26
2023-02-11T05:37:07.430Z,89.53
2023-02-11T05:39:34.206Z,89.19
2023-02-11T05:42:00.982Z,89.60
2023-02-11T05:44:27.693Z,89.67
2023-02-11T05:46:54.423Z,89.77
2023-02-11T05:49:21.169Z,89.49
2023-02-11T05:51:47.903Z,88.54
2023-02-11T05:54:14.798Z,89.23
2023-02-11T05:56:44.426Z,89.49
2023-02-11T05:59:15.000Z,89.30
2023-02-11T06:01:42.689Z,90.08
2023-02-11T06:04:09.565Z,89.82
2023-02-11T06:06:36.488Z,89.78
2023-02-11T06:09:03.789Z,90.35
2023-02-11T06:11:30.534Z,91.06
2023-02-11T06:13:57.281Z,90.41
2023-02-11T06:16:24.036Z,90.53
2023-02-11T06:18:50.828Z,90.83
2023-02-11T06:21:17.634Z,90.43
2023-02-11T06:23:44.538Z,91.45
2023-02-11T06:26:19.823Z,91.74
2023-02-11T06:28:47.021Z,91.59
2023-02-11T06:31:14.715Z,91.30
2023-02-11T06:33:41.875Z,90.63
2023-02-11T06:36:18.497Z,90.74
2023-02-11T06:38:46.673Z,90.99
2023-02-11T06:41:16.054Z,90.39
2023-02-11T06:43:43.625Z,90.29
2023-02-11T06:46:10.429Z,89.60
2023-02-11T06:48:37.594Z,89.63
2023-02-11T06:51:10.219Z,90.17
2023-02-11T06:53:45.995Z,90.31
2023-02-11T06:56:22.495Z,91.16
2023-02-11T06:58:55.549Z,91.85
2023-02-11T07:01:24.681Z,91.59
2023-02-11T07:03:51.520Z,92.26
2023-02-11T07:06:23.136Z,92.63
2023-02-11T07:08:49.947Z,93.20
2023-02-11T07:11:26.756Z,93.57
2023-02-11T07:13:56.915Z,93.94
2023-02-11T07:16:24.139Z,94.26
2023-02-11T07:18:50.900Z,94.44
2023-02-11T07:21:21.123Z,94.62
2023-02-11T07:23:48.841Z,94.79
2023-02-11T07:26:19.628Z,95.23
2023-02-11T07:28:46.984Z,94.78
2023-02-11T07:31:18.651Z,94.54
2023-02-11T07:33:48.663Z,93.85
2023-02-11T07:36:16.701Z,93.72
2023-02-11T07:38:44.143Z,93.46
2023-02-11T07:41:14.467Z,93.57
2023-02-11T07:43:41.755Z,94.02
2023-02-11T07:46:19.101Z,93.61
2023-02-11T07:48:46.794Z,93.46
2023-02-11T07:51:20.408Z,93.63
2023-02-11T07:53:47.590Z,93.68
2023-02-11T07:56:16.517Z,93.46
2023-02-11T07:58:44.281Z,94.01
2023-02-11T08:01:25.520Z,94.31
2023-02-11T08:03:53.308Z,93.98
2023-02-11T08:06:23.150Z,93.79
2023-02-11T08:08:50.737Z,93.75
2023-02-11T08:11:26.813Z,93.98
2023-02-11T08:13:55.428Z,93.81
2023-02-11T08:16:32.007Z,93.50
2023-02-11T08:19:02.333Z,93.42
2023-02-11T08:21:29.529Z,93.32
2023-02-11T08:26:27.836Z,92.34
2023-02-11T08:28:56.920Z,92.18
2023-02-11T08:31:31.052Z,91.99
2023-02-11T08:34:02.426Z,91.88
2023-02-11T08:36:36.192Z,91.78
2023-02-11T08:39:18.604Z,91.80
2023-02-11T08:41:52.006Z,92.26
2023-02-11T08:44:21.355Z,92.16
2023-02-11T08:46:49.479Z,91.68
2023-02-11T08:49:16.762Z,91.40
2023-02-11T08:51:44.268Z,91.14
2023-02-11T08:54:11.712Z,91.35
2023-02-11T08:56:39.306Z,91.33
2023-02-11T08:59:07.339Z,91.54
2023-02-11T09:01:34.250Z,91.75
2023-02-11T09:04:01.426Z,91.59
2023-02-11T09:06:29.244Z,91.39
2023-02-11T09:08:58.200Z,91.61
2023-02-11T09:11:35.306Z,91.32
2023-02-11T09:14:04.259Z,90.36
2023-02-11T10:32:16.398Z,75.75
2023-02-11T10:34:43.235Z,74.66
2023-02-11T10:37:14.096Z,72.03
2023-02-11T10:39:41.662Z,71.10
2023-02-11T10:42:13.290Z,69.86
2023-02-11T10:44:59.981Z,69.80
2023-02-11T10:47:36.875Z,68.45
2023-02-11T10:50:28.295Z,67.74
2023-02-11T10:53:22.387Z,67.75
2023-02-11T10:56:00.063Z,67.49
2023-02-11T10:58:32.045Z,67.81
2023-02-11T11:01:01.281Z,67.32
2023-02-11T11:03:50.538Z,66.80
2023-02-11T11:06:33.296Z,67.40
2023-02-11T11:09:00.190Z,66.65
2023-02-11T11:11:27.755Z,63.48
2023-02-11T11:13:54.428Z,62.04
2023-02-11T11:16:24.460Z,63.03
2023-02-11T11:19:11.180Z,61.95
2023-02-11T11:21:54.870Z,61.61
2023-02-11T11:24:40.241Z,60.25
2023-02-11T11:27:07.285Z,59.62
2023-02-11T11:29:52.388Z,58.75
2023-02-11T11:32:29.481Z,58.14
2023-02-11T11:35:02.776Z,57.12
2023-02-11T11:37:32.837Z,56.93
2023-02-11T11:40:20.934Z,56.92
2023-02-11T11:43:14.203Z,55.00
2023-02-11T11:45:58.175Z,54.81
2023-02-11T11:48:38.570Z,54.82
2023-02-11T11:51:11.667Z,55.09
2023-02-11T11:53:53.249Z,55.55
2023-02-11T11:56:27.198Z,56.16
2023-02-11T11:58:54.565Z,54.51
2023-02-11T12:01:49.443Z,54.59
2023-02-11T12:04:34.908Z,53.13
2023-02-11T12:07:31.338Z,52.55
2023-02-11T12:10:31.675Z,52.68
2023-02-11T12:13:31.510Z,51.73
2023-02-11T12:16:31.733Z,51.36
2023-02-11T12:19:38.858Z,51.50
2023-02-11T12:22:26.645Z,51.37
2023-02-11T12:25:35.839Z,50.82
2023-02-11T12:28:39.466Z,50.37
2023-02-11T12:31:31.510Z,49.90
2023-02-11T12:34:05.284Z,50.20
2023-02-11T12:36:40.864Z,49.21
2023-02-11T12:39:39.440Z,48.82
2023-02-11T12:42:56.930Z,48.86
2023-02-11T12:46:02.740Z,48.96
2023-02-11T12:49:19.335Z,48.37
2023-02-11T12:52:08.800Z,47.46
2023-02-11T12:55:11.879Z,46.18
2023-02-11T12:57:42.022Z,46.03
2023-02-11T13:00:23.731Z,47.11
2023-02-11T13:03:01.393Z,46.25
2023-02-11T13:05:34.775Z,46.21
2023-02-11T13:08:35.957Z,45.70
2023-02-11T13:11:08.029Z,45.02
2023-02-11T13:13:54.015Z,45.27
2023-02-11T13:16:37.214Z,45.21
2023-02-11T13:19:04.016Z,44.40
2023-02-11T13:21:38.551Z,43.80
2023-02-11T13:24:38.478Z,45.26
2023-02-11T13:27:26.535Z,44.61
2023-02-11T13:30:34.690Z,44.26
2023-02-11T13:33:01.439Z,44.64
2023-02-11T13:35:29.884Z,44.36
2023-02-11T13:37:58.413Z,44.12
2023-02-11T13:40:33.726Z,43.02
2023-02-11T13:43:03.859Z,43.28
2023-02-11T13:45:48.148Z,42.94
2023-02-11T13:48:24.717Z,44.04
2023-02-11T13:50:59.692Z,43.62
2023-02-11T13:53:27.803Z,43.75
2023-02-11T13:56:10.090Z,44.52
2023-02-11T13:58:47.699Z,43.97
2023-02-11T14:02:23.378Z,44.33
2023-02-11T14:05:24.520Z,44.55
2023-02-11T14:08:28.057Z,44.53
2023-02-11T14:10:58.904Z,44.82
2023-02-11T14:13:30.569Z,45.11
2023-02-11T14:16:13.673Z,45.99
2023-02-11T14:18:49.670Z,46.47
2023-02-11T14:21:23.114Z,46.53
2023-02-11T14:23:54.633Z,46.68
2023-02-11T14:26:21.324Z,46.73
2023-02-11T14:29:01.699Z,46.53
2023-02-11T14:31:42.432Z,46.71
2023-02-11T14:34:54.891Z,46.93
2023-02-11T14:37:55.850Z,47.20
2023-02-11T14:40:34.831Z,47.00
2023-02-11T14:43:29.530Z,47.49
2023-02-11T14:45:58.356Z,48.08
2023-02-11T14:48:32.154Z,47.39
2023-02-11T14:51:08.213Z,47.84
2023-02-11T14:53:36.602Z,47.69
2023-02-11T14:56:03.934Z,48.24
2023-02-11T14:58:34.493Z,47.65
2023-02-11T15:01:10.599Z,48.18
2023-02-11T15:03:49.232Z,47.23
2023-02-11T15:06:38.713Z,46.89
2023-02-11T15:09:20.148Z,46.89
2023-02-11T15:11:50.142Z,46.68
2023-02-11T15:14:25.758Z,46.35
2023-02-11T15:16:55.756Z,46.02
2023-02-11T15:19:34.201Z,45.50
2023-02-11T15:22:04.779Z,46.34
2023-02-11T15:24:35.202Z,45.45
2023-02-11T15:27:08.170Z,45.20
2023-02-11T15:29:37.290Z,45.18
2023-02-11T15:32:19.620Z,46.05
2023-02-11T15:34:48.259Z,45.25
2023-02-11T15:37:29.788Z,45.26
2023-02-11T15:40:15.889Z,44.85
2023-02-11T15:43:06.646Z,44.95
2023-02-11T15:45:51.673Z,44.56
2023-02-11T15:48:34.525Z,45.50
2023-02-11T15:51:11.496Z,46.26
2023-02-11T15:53:43.096Z,46.84
2023-02-11T15:56:45.156Z,47.78
2023-02-11T15:59:20.679Z,48.12
2023-02-11T16:01:48.800Z,47.82
2023-02-11T16:04:25.775Z,49.33
2023-02-11T16:06:54.654Z,49.98
2023-02-11T16:09:36.440Z,49.84
2023-02-11T16:12:23.055Z,50.17
2023-02-11T16:14:49.830Z,51.06
2023-02-11T16:17:19.489Z,52.44
2023-02-11T16:19:49.162Z,53.09
2023-02-11T16:22:20.858Z,53.67
2023-02-11T16:24:50.061Z,54.39
2023-02-11T16:27:30.582Z,54.40
2023-02-11T16:29:58.894Z,55.62
2023-02-11T16:32:30.783Z,56.75
2023-02-11T16:35:00.895Z,56.78
2023-02-11T16:37:27.879Z,57.58
2023-02-11T16:39:56.553Z,57.95
2023-02-11T16:42:23.598Z,58.24
2023-02-11T16:44:50.390Z,58.98
2023-02-11T16:47:23.928Z,59.61
2023-02-11T16:49:51.127Z,59.44
2023-02-11T16:52:18.970Z,60.34
2023-02-11T16:54:45.922Z,62.00
2023-02-11T16:57:28.771Z,62.10
2023-02-11T16:59:57.031Z,61.79
2023-02-11T17:02:31.811Z,62.22
2023-02-11T17:05:01.246Z,62.90
2023-02-11T17:07:29.132Z,63.07
2023-02-11T17:09:56.598Z,63.45
2023-02-11T17:12:26.630Z,64.93
2023-02-11T17:14:54.385Z,66.59
2023-02-11T17:17:23.739Z,66.96
2023-02-11T17:19:51.257Z,67.90
2023-02-11T17:22:18.824Z,67.34
2023-02-11T17:24:45.655Z,66.82
2023-02-11T17:27:13.087Z,67.18
2023-02-11T17:29:39.847Z,67.26
2023-02-11T17:32:06.790Z,67.56
2023-02-11T17:34:33.615Z,68.64
2023-02-11T17:37:01.581Z,70.60
2023-02-11T17:39:28.324Z,69.88
2023-02-11T17:41:55.101Z,70.38
2023-02-11T17:44:21.838Z,71.38
2023-02-11T17:46:48.770Z,72.71
2023-02-11T17:49:16.458Z,73.60
2023-02-11T17:51:43.614Z,74.52
2023-02-11T17:54:18.265Z,75.20
2023-02-11T17:56:46.308Z,76.28
2023-02-11T17:59:14.430Z,76.67
2023-02-11T18:01:42.840Z,76.58
2023-02-11T18:04:15.381Z,76.62
2023-02-11T18:06:42.347Z,77.05
2023-02-11T18:09:09.247Z,77.39
2023-02-11T18:11:37.869Z,77.98
2023-02-11T18:14:07.894Z,77.42
2023-02-11T18:16:36.684Z,77.77
2023-02-11T18:19:04.084Z,77.33
2023-02-11T18:21:30.933Z,77.11
2023-02-11T18:23:58.010Z,77.93
2023-02-11T18:26:26.389Z,77.29
2023-02-11T18:28:53.285Z,77.83
2023-02-11T18:31:22.047Z,78.43
2023-02-11T18:33:49.109Z,78.48
2023-02-11T18:36:17.081Z,78.82
2023-02-11T18:38:47.164Z,77.92
2023-02-11T18:41:14.580Z,78.27
2023-02-11T18:43:41.349Z,78.92
2023-02-11T18:46:11.862Z,79.95
2023-02-11T18:48:39.380Z,80.06
2023-02-11T18:51:12.453Z,81.31
2023-02-11T18:53:39.370Z,82.47
2023-02-11T18:56:09.208Z,81.65
2023-02-11T18:58:37.712Z,80.76
2023-02-11T19:01:27.573Z,80.94
2023-02-11T19:03:57.517Z,81.22
2023-02-11T19:06:30.220Z,80.91
2023-02-11T19:09:00.746Z,81.15
2023-02-11T19:11:49.013Z,81.26
2023-02-11T19:14:22.802Z,82.33
2023-02-11T19:16:51.738Z,83.04
2023-02-11T19:19:19.545Z,82.76
2023-02-11T19:21:47.638Z,84.21
2023-02-11T19:24:17.297Z,84.26
2023-02-11T19:26:44.047Z,84.43
2023-02-11T19:29:11.154Z,84.67
2023-02-11T19:31:38.461Z,84.83
2023-02-11T19:34:06.277Z,84.54
2023-02-11T19:36:34.043Z,83.32
2023-02-11T19:39:02.269Z,82.83
2023-02-11T19:41:30.417Z,83.17
2023-02-11T19:43:57.177Z,83.42
2023-02-11T19:46:26.406Z,84.52
2023-02-11T19:48:53.807Z,85.01
2023-02-11T19:51:21.665Z,85.10
2023-02-11T19:53:49.096Z,83.90
2023-02-11T19:56:16.170Z,83.38
2023-02-11T19:58:43.459Z,84.58
2023-02-11T20:01:17.408Z,84.93
2023-02-11T20:03:44.335Z,84.38
2023-02-11T20:06:17.311Z,85.18
2023-02-11T20:08:44.744Z,86.16
2023-02-11T20:11:17.590Z,86.12
2023-02-11T20:13:44.666Z,86.18
2023-02-11T20:16:16.747Z,86.05
2023-02-11T20:18:45.498Z,85.66
2023-02-11T20:21:24.838Z,84.43
2023-02-11T20:23:52.459Z,85.21
2023-02-11T20:26:23.741Z,85.69
2023-02-11T20:28:52.301Z,86.81
2023-02-11T20:31:20.530Z,87.44
2023-02-11T20:33:48.647Z,87.71
2023-02-11T20:36:19.958Z,87.28
2023-02-11T20:38:47.829Z,87.54
2023-02-11T20:41:22.799Z,86.14
2023-02-11T20:43:55.496Z,86.36
2023-02-11T20:46:28.873Z,87.85
2023-02-11T20:48:57.286Z,88.96
2023-02-11T20:51:31.751Z,89.70
2023-02-11T20:53:59.427Z,89.71
2023-02-11T20:56:37.191Z,88.79
2023-02-11T20:59:05.223Z,89.71
2023-02-11T21:01:41.755Z,88.99
2023-02-11T21:04:20.147Z,88.23
2023-02-11T21:06:52.336Z,88.59
2023-02-11T21:09:23.180Z,88.50
2023-02-11T21:11:51.748Z,88.53
2023-02-11T21:14:20.113Z,88.41
2023-02-11T21:16:48.192Z,88.99
2023-02-11T21:19:15.889Z,89.80
2023-02-11T21:21:42.964Z,90.11
2023-02-11T21:24:10.761Z,90.50
2023-02-11T21:26:38.413Z,90.63
2023-02-11T21:29:07.678Z,90.55
2023-02-11T21:31:35.694Z,90.81
2023-02-11T21:34:03.297Z,91.59
2023-02-11T21:36:30.859Z,91.12
2023-02-11T21:38:57.979Z,90.43
2023-02-11T21:41:25.059Z,90.38
2023-02-11T21:43:52.902Z,91.14
2023-02-11T21:46:20.676Z,92.53
2023-02-11T21:48:47.949Z,92.74
2023-02-11T21:51:26.359Z,92.59
2023-02-11T21:53:59.743Z,93.59
2023-02-11T21:56:28.286Z,93.67
2023-02-11T21:58:58.086Z,93.42
2023-02-11T22:01:29.071Z,93.22
2023-02-11T22:03:56.431Z,93.58
2023-02-11T22:06:30.915Z,93.87
2023-02-11T22:08:58.460Z,94.23
2023-02-11T22:11:25.280Z,94.67
2023-02-11T22:13:56.544Z,94.72
2023-02-11T22:16:24.183Z,94.60
2023-02-11T22:18:51.604Z,94.18
2023-02-11T22:21:22.661Z,93.98
2023-02-11T22:23:50.221Z,94.89
2023-02-11T22:26:21.237Z,95.14
2023-02-11T22:28:48.724Z,95.16
2023-02-11T22:31:24.569Z,95.04
2023-02-11T22:33:51.854Z,94.47
2023-02-11T22:36:26.309Z,93.98
2023-02-11T22:38:54.446Z,93.74
2023-02-11T22:41:22.624Z,93.66
2023-02-11T22:43:49.440Z,93.72
2023-02-11T22:46:19.251Z,92.65
2023-02-11T22:48:47.633Z,93.03
2023-02-11T22:51:22.099Z,92.92
2023-02-11T22:53:54.385Z,92.61
2023-02-11T22:56:21.850Z,92.81
2023-02-11T22:58:48.922Z,93.15
2023-02-11T23:01:16.410Z,93.43
2023-02-11T23:03:43.325Z,93.37
2023-02-11T23:06:11.799Z,93.57
2023-02-11T23:08:41.170Z,93.31
2023-02-11T23:11:14.568Z,93.11
2023-02-11T23:13:42.468Z,92.70
2023-02-11T23:16:14.672Z,93.13
2023-02-11T23:18:43.739Z,93.17
2023-02-11T23:21:31.160Z,92.78
2023-02-11T23:24:02.127Z,92.80
2023-02-11T23:26:29.753Z,92.46
2023-02-11T23:28:59.596Z,92.78
2023-02-11T23:31:31.226Z,92.62
2023-02-11T23:33:58.158Z,92.75
2023-02-11T23:36:25.004Z,93.49
2023-02-11T23:38:52.294Z,93.61
2023-02-11T23:41:20.317Z,94.09
2023-02-11T23:43:53.323Z,93.34
2023-02-11T23:46:22.107Z,93.01
2023-02-11T23:48:50.123Z,93.23
2023-02-11T23:51:17.667Z,92.53
2023-02-11T23:53:46.003Z,92.06
2023-02-11T23:56:20.967Z,92.44
2023-02-11T23:58:52.651Z,92.57
